Time;durP1;ratioP1;P1;durP2;ratioP2;P2;SDS_P1;SDS_P2;PMS_P1;PMS_P2;Temp;Humidity;BMP_temperature;BMP_pressure;BME280_temperature;BME280_humidity;BME280_pressure;Samples;Min_cycle;Max_cycle;Signal;HPM_P1;HPM_P2
2023/12/16 00:10:29;;;;;;;;;;;;;;;;;;;;;
2023/12/16 05:15:25;;;;;;;;;;;;;;;;;;;;;
2023/12/16 05:37:42;;;;;;;;;;;;;;;;;;;;;
2023/12/16 05:43:57;;;;;;;19.92;4.38;;;6.90;99.90;;;;;;1191533;26;20050;-78
2023/12/16 05:50:47;;;;;;;;;;;;;;;;;;;;;
2023/12/16 05:53:48;;;;;;;18.05;4.60;;;7.00;99.90;;;;;;4901830;29;20134;-79
2023/12/16 06:24:37;;;;;;;27.40;5.65;;;6.90;99.90;;;;;;4862628;29;20134;-78
2023/12/16 06:31:08;;;;;;;;;;;;;;;;;;;;;
2023/12/16 06:34:49;;;;;;;;;;;;;;;;;;;;;
2023/12/16 06:37:15;;;;;;;19.40;5.70;;;6.90;99.90;;;;;;4923551;28;20043;-78
2023/12/16 06:39:54;;;;;;;;;;;;;;;;;;;;;
2023/12/16 06:42:29;;;;;;;22.40;5.65;;;6.90;99.90;;;;;;4974708;28;20054;-78
2023/12/16 06:45:53;;;;;;;;;;;;;;;;;;;;;
2023/12/16 06:48:41;;;;;;;;;;;;;;;;;;;;;
2023/12/16 06:51:37;;;;;;;24.98;5.60;;;7.00;99.90;;;;;;4975111;28;20089;-77
2023/12/16 06:55:25;;;;;;;;;;;;;;;;;;;;;
2023/12/16 06:59:17;;;;;;;;;;;;;;;;;;;;;
2023/12/16 07:02:42;;;;;;;;;;;;;;;;;;;;;
2023/12/16 07:05:20;;;;;;;27.50;7.35;;;7.10;99.90;;;;;;4912477;28;20129;-78
2023/12/16 07:08:44;;;;;;;;;;;;;;;;;;;;;
2023/12/16 07:16:06;;;;;;;;;;;;;;;;;;;;;
2023/12/16 07:19:22;;;;;;;;;;;;;;;;;;;;;
2023/12/16 07:22:30;;;;;;;;;;;;;;;;;;;;;
2023/12/16 07:29:01;;;;;;;26.88;5.28;;;7.20;99.90;;;;;;4934797;29;20475;-79
2023/12/16 07:31:55;;;;;;;32.25;6.47;;;7.30;99.90;;;;;;4941232;28;20113;-78
2023/12/16 07:34:24;;;;;;;25.83;5.38;;;7.40;99.90;;;;;;4959580;28;20455;-77
2023/12/16 07:37:19;;;;;;;;;;;;;;;;;;;;;
2023/12/16 07:51:48;;;;;;;;;;;;;;;;;;;;;
2023/12/16 07:55:10;;;;;;;26.80;5.45;;;7.70;99.90;;;;;;4807903;29;20054;-78
2023/12/16 07:58:48;;;;;;;;;;;;;;;;;;;;;
2023/12/16 08:02:08;;;;;;;27.10;5.60;;;7.70;99.90;;;;;;4859114;29;20465;-79
2023/12/16 08:05:11;;;;;;;35.78;5.97;;;7.70;99.90;;;;;;4793302;29;20451;-78
2023/12/16 08:07:45;;;;;;;24.42;4.88;;;7.80;99.90;;;;;;4771253;30;20370;-77
2023/12/16 08:10:53;;;;;;;34.83;5.72;;;7.90;99.90;;;;;;4763033;29;20154;-78
2023/12/16 08:13:31;;;;;;;31.30;5.53;;;8.00;99.90;;;;;;4820863;29;20066;-78
2023/12/16 08:16:20;;;;;;;23.98;5.10;;;8.00;99.90;;;;;;4804380;29;20074;-77
2023/12/16 08:18:49;;;;;;;30.77;5.70;;;7.90;99.90;;;;;;4822914;29;20061;-78
2023/12/16 08:22:02;;;;;;;29.23;5.93;;;8.00;99.90;;;;;;4808161;29;20535;-79
2023/12/16 08:24:36;;;;;;;29.83;4.82;;;7.90;99.90;;;;;;4804153;29;20151;-78
2023/12/16 08:38:33;;;;;;;32.88;6.32;;;7.80;99.90;;;;;;4750148;30;20047;-76
2023/12/16 08:45:30;;;;;;;39.78;7.85;;;7.80;99.90;;;;;;4804484;29;20072;-79
2023/12/16 08:48:12;;;;;;;23.85;5.57;;;7.80;99.90;;;;;;4855288;29;20056;-78
2023/12/16 08:50:58;;;;;;;;;;;;;;;;;;;;;
2023/12/16 08:53:50;;;;;;;36.33;6.53;;;7.90;99.90;;;;;;4895676;29;20051;-78
2023/12/16 08:56:18;;;;;;;24.73;5.18;;;7.90;99.90;;;;;;4895009;29;20058;-79
2023/12/16 08:58:46;;;;;;;26.65;5.85;;;7.90;99.90;;;;;;4896439;29;20472;-78
2023/12/16 09:01:23;;;;;;;24.73;5.78;;;7.90;99.90;;;;;;4895807;29;20068;-79
2023/12/16 09:03:50;;;;;;;26.15;5.80;;;7.90;99.90;;;;;;4892475;29;20048;-77
2023/12/16 09:06:15;;;;;;;29.90;6.80;;;7.90;99.90;;;;;;4896366;29;20531;-79
2023/12/16 09:08:41;;;;;;;34.50;5.68;;;7.90;99.90;;;;;;4897138;29;20520;-78
2023/12/16 09:11:06;;;;;;;28.50;5.85;;;7.90;99.90;;;;;;4896104;29;20599;-78
2023/12/16 09:13:32;;;;;;;26.27;5.18;;;8.00;99.90;;;;;;4880537;29;20096;-79
2023/12/16 09:15:58;;;;;;;26.65;5.20;;;8.00;99.90;;;;;;4914342;29;20062;-77
2023/12/16 09:18:24;;;;;;;30.05;6.25;;;8.00;99.90;;;;;;4955172;29;20506;-80
2023/12/16 09:20:49;;;;;;;29.38;5.75;;;8.10;99.90;;;;;;4938387;29;20047;-80
2023/12/16 09:23:16;;;;;;;29.00;5.25;;;8.00;99.90;;;;;;4938088;29;20102;-79
2023/12/16 09:25:41;;;;;;;29.35;6.00;;;8.10;99.90;;;;;;4954013;29;20081;-78
2023/12/16 09:28:07;;;;;;;24.83;5.72;;;8.10;99.90;;;;;;4937970;29;20047;-78
2023/12/16 09:30:32;;;;;;;28.35;6.10;;;8.10;99.90;;;;;;4937843;28;20129;-78
2023/12/16 09:32:58;;;;;;;33.45;6.82;;;8.10;99.90;;;;;;4937976;29;20043;-78
2023/12/16 09:35:25;;;;;;;27.08;5.63;;;8.10;99.90;;;;;;4938637;29;20043;-78
2023/12/16 09:37:50;;;;;;;33.53;6.57;;;8.10;99.90;;;;;;4955283;29;20043;-79
2023/12/16 09:40:16;;;;;;;27.27;5.40;;;8.20;99.90;;;;;;4938007;28;20182;-78
2023/12/16 09:42:45;;;;;;;24.42;5.90;;;8.20;99.90;;;;;;4937814;29;20513;-79
2023/12/16 09:45:15;;;;;;;30.45;5.55;;;8.10;99.90;;;;;;4954702;29;20050;-78
2023/12/16 09:47:42;;;;;;;25.17;5.10;;;8.20;99.90;;;;;;4955084;29;20079;-78
2023/12/16 09:50:46;;;;;;;38.58;6.57;;;8.20;99.90;;;;;;4937726;29;20055;-79
2023/12/16 09:53:15;;;;;;;34.47;7.28;;;8.20;99.90;;;;;;4937756;29;20069;-79
2023/12/16 09:55:41;;;;;;;42.55;7.47;;;8.30;99.90;;;;;;4955065;29;20491;-80
2023/12/16 09:58:15;;;;;;;28.83;5.72;;;8.20;99.90;;;;;;4955124;29;20130;-77
2023/12/16 10:00:46;;;;;;;28.98;5.95;;;8.20;99.90;;;;;;4955324;28;20043;-78
2023/12/16 10:03:16;;;;;;;38.45;6.45;;;8.30;99.90;;;;;;4937892;29;20130;-78
2023/12/16 10:05:43;;;;;;;36.25;6.53;;;8.30;99.90;;;;;;4955412;29;20039;-80
2023/12/16 10:08:09;;;;;;;40.38;8.82;;;8.20;99.90;;;;;;4955588;29;20043;-80
2023/12/16 10:10:35;;;;;;;39.38;7.65;;;8.30;99.90;;;;;;4955471;28;20046;-79
2023/12/16 10:13:03;;;;;;;33.75;6.78;;;8.20;99.90;;;;;;4941299;29;20065;-79
2023/12/16 10:15:33;;;;;;;39.45;6.78;;;8.30;99.90;;;;;;4973780;28;20054;-78
2023/12/16 10:18:01;;;;;;;36.63;7.25;;;8.20;99.90;;;;;;4979566;28;20577;-78
2023/12/16 10:20:27;;;;;;;38.20;7.18;;;8.20;99.90;;;;;;4979335;28;20482;-79
2023/12/16 10:23:04;;;;;;;;;;;;;;;;;;;;;
2023/12/16 10:25:32;;;;;;;40.28;8.10;;;8.20;99.90;;;;;;4996434;28;20050;-78
2023/12/16 10:28:00;;;;;;;43.70;9.45;;;8.20;99.90;;;;;;4996949;28;20073;-78
2023/12/16 10:30:27;;;;;;;39.83;9.10;;;8.30;99.90;;;;;;4979177;28;20486;-78
2023/12/16 10:32:55;;;;;;;55.38;9.70;;;8.20;99.90;;;;;;4979167;28;20401;-79
2023/12/16 10:35:34;;;;;;;50.88;11.00;;;8.30;99.90;;;;;;4996778;28;20038;-78
2023/12/16 10:41:40;;;;;;;51.00;11.15;;;8.20;99.90;;;;;;4920604;29;20055;-83
2023/12/16 10:44:06;;;;;;;60.67;11.65;;;8.20;99.90;;;;;;4992760;28;20042;-81
2023/12/16 10:46:35;;;;;;;56.72;12.20;;;8.30;99.90;;;;;;4996652;28;20143;-76
2023/12/16 10:49:02;;;;;;;44.90;12.77;;;8.30;99.90;;;;;;4995329;28;20092;-77
2023/12/16 10:51:32;;;;;;;56.38;14.98;;;8.30;99.90;;;;;;4978891;28;20054;-78
2023/12/16 10:54:09;;;;;;;45.05;12.57;;;8.30;99.90;;;;;;4995339;28;20121;-77
2023/12/16 10:56:38;;;;;;;54.20;14.65;;;8.30;99.90;;;;;;4978738;28;20046;-78
2023/12/16 10:59:05;;;;;;;56.08;15.55;;;8.30;99.90;;;;;;4978681;28;20043;-76
2023/12/16 11:01:34;;;;;;;59.90;14.85;;;8.40;99.90;;;;;;4996296;28;20140;-77
2023/12/16 11:04:15;;;;;;;56.33;14.82;;;8.40;99.90;;;;;;4978722;28;20048;-77
2023/12/16 11:06:51;;;;;;;45.95;13.00;;;8.40;99.90;;;;;;4996908;28;20038;-76
2023/12/16 11:09:18;;;;;;;59.00;14.90;;;8.40;99.90;;;;;;4996177;28;20046;-77
2023/12/16 11:11:45;;;;;;;60.70;14.77;;;8.50;99.90;;;;;;4996221;28;20034;-77
2023/12/16 11:14:11;;;;;;;48.15;15.27;;;8.40;99.90;;;;;;4979263;28;20042;-78
2023/12/16 11:16:53;;;;;;;53.22;13.60;;;8.40;99.90;;;;;;4978276;28;20593;-81
2023/12/16 11:19:22;;;;;;;57.70;15.73;;;8.50;99.90;;;;;;4978880;28;20078;-79
2023/12/16 11:21:51;;;;;;;49.70;13.93;;;8.50;99.90;;;;;;4977175;28;20044;-77
2023/12/16 11:24:18;;;;;;;54.95;15.75;;;8.50;99.90;;;;;;4960497;28;20527;-77
2023/12/16 11:26:52;;;;;;;60.30;18.27;;;8.40;99.90;;;;;;4977373;28;20078;-76
2023/12/16 11:29:25;;;;;;;54.97;15.82;;;8.40;99.90;;;;;;4978721;28;20034;-77
2023/12/16 11:34:49;;;;;;;51.70;15.02;;;8.40;99.90;;;;;;4916832;29;20571;-82
2023/12/16 11:37:35;;;;;;;54.53;16.17;;;8.40;99.90;;;;;;4916869;29;20098;-79
2023/12/16 11:40:07;;;;;;;47.55;15.02;;;8.40;99.90;;;;;;4917137;29;20056;-86
2023/12/16 11:42:47;;;;;;;62.33;22.13;;;8.40;99.90;;;;;;4900307;29;20060;-77
2023/12/16 11:45:43;;;;;;;48.10;13.75;;;8.40;99.90;;;;;;4916754;29;20059;-80
2023/12/16 11:48:15;;;;;;;39.75;15.25;;;8.40;99.90;;;;;;4908872;29;20105;-81
2023/12/16 11:50:46;;;;;;;38.58;14.05;;;8.40;99.90;;;;;;4916611;29;20044;-79
2023/12/16 11:53:17;;;;;;;58.42;15.85;;;8.50;99.90;;;;;;4917425;29;20084;-79
2023/12/16 11:55:43;;;;;;;38.90;13.40;;;8.50;99.90;;;;;;4901284;29;20532;-79
2023/12/16 11:58:09;;;;;;;34.78;12.23;;;8.50;99.90;;;;;;4924468;28;20050;-81
2023/12/16 12:00:35;;;;;;;36.63;11.55;;;8.50;99.90;;;;;;4976134;28;20046;-80
2023/12/16 12:03:02;;;;;;;34.72;10.52;;;8.50;99.90;;;;;;4975662;28;20074;-80
2023/12/16 12:05:29;;;;;;;32.50;11.55;;;8.60;99.90;;;;;;4975983;28;20050;-81
2023/12/16 12:07:55;;;;;;;28.27;9.35;;;8.60;99.90;;;;;;4976028;28;20092;-81
2023/12/16 12:10:22;;;;;;;28.83;9.02;;;8.60;99.90;;;;;;4975710;28;20386;-80
2023/12/16 12:12:48;;;;;;;36.97;10.52;;;8.60;99.90;;;;;;4976413;28;20042;-82
2023/12/16 12:15:14;;;;;;;23.63;10.75;;;8.70;99.90;;;;;;4975715;28;20045;-80
2023/12/16 12:17:40;;;;;;;24.83;10.40;;;8.70;99.90;;;;;;4975995;28;20038;-81
2023/12/16 12:20:06;;;;;;;29.30;10.23;;;8.70;99.90;;;;;;4978061;28;20098;-82
2023/12/16 12:22:33;;;;;;;33.65;11.02;;;8.80;99.90;;;;;;4975834;28;20043;-81
2023/12/16 12:24:59;;;;;;;38.88;13.70;;;8.80;99.90;;;;;;4994841;28;20033;-80
2023/12/16 12:27:27;;;;;;;29.25;12.27;;;8.80;99.90;;;;;;4995681;28;20082;-81
2023/12/16 12:30:04;;;;;;;36.20;11.00;;;8.80;99.90;;;;;;4977677;28;20049;-79
2023/12/16 12:32:31;;;;;;;22.70;9.57;;;8.80;99.90;;;;;;4976638;28;20049;-80
2023/12/16 12:35:05;;;;;;;30.88;12.15;;;8.80;99.90;;;;;;4976085;28;20081;-80
2023/12/16 12:37:42;;;;;;;26.75;11.50;;;8.80;99.90;;;;;;4976511;28;20113;-82
2023/12/16 12:40:16;;;;;;;32.10;11.60;;;8.80;99.90;;;;;;4975971;28;20101;-81
2023/12/16 12:42:55;;;;;;;26.25;9.73;;;8.80;99.90;;;;;;4975418;28;20049;-80
2023/12/16 12:45:34;;;;;;;28.10;10.55;;;8.80;99.90;;;;;;4976064;28;20050;-81
2023/12/16 12:48:12;;;;;;;26.92;10.20;;;8.90;99.90;;;;;;4975172;28;20398;-81
2023/12/16 12:50:40;;;;;;;31.40;10.07;;;8.90;99.90;;;;;;4955761;28;20047;-82
2023/12/16 12:57:40;;;;;;;30.17;10.70;;;8.90;99.90;;;;;;4956857;29;20073;-82
2023/12/16 13:44:09;;;;;;;32.42;11.90;;;9.00;99.90;;;;;;5958892;23;20032;-82
2023/12/16 13:46:35;;;;;;;30.88;12.13;;;9.00;99.90;;;;;;5016855;28;20038;-79
2023/12/16 15:41:33;;;;;;;21.13;9.57;;;9.10;99.90;;;;;;4812776;29;20118;-82
2023/12/16 15:43:59;;;;;;;25.05;8.95;;;9.10;99.90;;;;;;4897661;29;20507;-80
2023/12/16 15:46:24;;;;;;;25.23;9.30;;;9.10;99.90;;;;;;4935601;29;20043;-80
2023/12/16 15:48:50;;;;;;;25.13;8.95;;;9.10;99.90;;;;;;4989510;28;20042;-81
2023/12/16 15:51:26;;;;;;;24.80;9.20;;;9.10;99.90;;;;;;4997311;28;20174;-79
2023/12/16 15:53:54;;;;;;;27.02;9.05;;;9.10;99.90;;;;;;4981367;28;20463;-80
2023/12/16 15:56:19;;;;;;;22.95;8.88;;;9.10;99.90;;;;;;5014997;28;20072;-81
2023/12/16 15:58:45;;;;;;;28.00;9.73;;;9.10;99.90;;;;;;5015506;28;20042;-79
2023/12/16 16:01:11;;;;;;;27.15;9.80;;;9.10;99.90;;;;;;5015532;28;20046;-84
2023/12/16 16:03:36;;;;;;;19.58;9.40;;;9.10;99.90;;;;;;5015126;28;20037;-80
2023/12/16 16:06:02;;;;;;;24.55;8.27;;;9.10;99.90;;;;;;5014992;28;20092;-82
2023/12/16 16:08:28;;;;;;;19.30;7.55;;;9.20;99.90;;;;;;5014312;28;20120;-79
2023/12/16 16:10:53;;;;;;;24.45;10.48;;;9.20;99.90;;;;;;5014692;28;20048;-82
2023/12/16 16:13:19;;;;;;;36.17;10.80;;;9.20;99.90;;;;;;5015243;28;20080;-82
2023/12/16 16:15:45;;;;;;;32.63;10.90;;;9.20;99.90;;;;;;4997701;28;20073;-80
2023/12/16 16:18:11;;;;;;;28.52;10.88;;;9.20;99.90;;;;;;5014889;28;20064;-80
2023/12/16 16:20:36;;;;;;;26.73;10.77;;;9.20;99.90;;;;;;4997421;28;20045;-81
2023/12/16 16:23:04;;;;;;;31.45;11.60;;;9.20;99.90;;;;;;5015561;28;20041;-79
2023/12/16 16:25:32;;;;;;;25.55;9.98;;;9.20;99.90;;;;;;5015478;28;20045;-78
2023/12/16 16:27:58;;;;;;;30.73;10.82;;;9.20;99.90;;;;;;5014867;28;20088;-81
2023/12/16 16:30:23;;;;;;;28.95;11.20;;;9.30;99.90;;;;;;4996912;28;20049;-82
2023/12/16 16:32:49;;;;;;;27.70;10.20;;;9.30;99.90;;;;;;5015071;28;20038;-82
2023/12/16 16:35:15;;;;;;;38.88;12.00;;;9.30;99.90;;;;;;5014958;28;20080;-79
2023/12/16 16:37:40;;;;;;;29.33;10.68;;;9.30;99.90;;;;;;5014726;28;20195;-78
2023/12/16 16:40:09;;;;;;;32.15;11.95;;;9.30;99.90;;;;;;5014372;28;20042;-78
2023/12/16 16:42:34;;;;;;;31.25;11.43;;;9.30;99.90;;;;;;4996612;28;20133;-80
2023/12/16 16:45:00;;;;;;;28.38;10.73;;;9.30;99.90;;;;;;5014495;28;20128;-81
2023/12/16 16:47:26;;;;;;;29.75;11.23;;;9.30;99.90;;;;;;5014658;28;20046;-78
2023/12/16 16:49:51;;;;;;;27.83;11.38;;;9.30;99.90;;;;;;5014492;28;20042;-77
2023/12/16 16:52:17;;;;;;;28.60;11.63;;;9.30;99.90;;;;;;5013869;28;20406;-78
2023/12/16 16:54:43;;;;;;;29.88;11.52;;;9.30;99.90;;;;;;4997257;28;20041;-76
2023/12/16 16:57:19;;;;;;;;;;;;;;;;;;;;;
2023/12/16 16:59:45;;;;;;;34.67;13.85;;;9.40;99.90;;;;;;5014347;28;20045;-77
2023/12/16 17:02:15;;;;;;;45.97;15.77;;;9.40;99.90;;;;;;5014298;28;20481;-81
2023/12/16 17:04:41;;;;;;;37.13;14.23;;;9.40;99.90;;;;;;5014717;28;20037;-80
2023/12/16 17:07:07;;;;;;;31.67;12.82;;;9.40;99.90;;;;;;4996280;28;20053;-82
2023/12/16 17:09:33;;;;;;;34.90;13.70;;;9.30;99.90;;;;;;5014514;28;20038;-79
2023/12/16 17:12:02;;;;;;;34.67;13.77;;;9.40;99.90;;;;;;4996869;28;20421;-81
2023/12/16 17:14:28;;;;;;;37.67;13.98;;;9.40;99.90;;;;;;4979565;28;20100;-82
2023/12/16 17:16:54;;;;;;;29.00;12.07;;;9.40;99.90;;;;;;4980832;28;20038;-77
2023/12/16 17:19:19;;;;;;;29.80;12.48;;;9.40;99.90;;;;;;5013818;28;20034;-79
2023/12/16 17:21:47;;;;;;;30.33;11.60;;;9.40;99.90;;;;;;4998459;28;20398;-78
2023/12/16 17:24:12;;;;;;;28.55;11.57;;;9.40;99.90;;;;;;4999990;28;20042;-78
2023/12/16 17:26:39;;;;;;;34.03;12.93;;;9.50;99.90;;;;;;4999943;28;20160;-77
2023/12/16 17:29:05;;;;;;;25.02;9.77;;;9.50;99.90;;;;;;5017700;28;20049;-80
2023/12/16 17:31:31;;;;;;;27.75;11.25;;;9.50;99.90;;;;;;4983524;28;20046;-80
2023/12/16 17:33:56;;;;;;;36.63;12.35;;;9.50;99.90;;;;;;5017796;28;20045;-79
2023/12/16 17:36:22;;;;;;;26.30;9.70;;;9.50;99.90;;;;;;4999882;28;20034;-79
2023/12/16 17:38:47;;;;;;;31.02;12.00;;;9.50;99.90;;;;;;5000623;28;20042;-79
2023/12/16 17:41:14;;;;;;;25.33;11.88;;;9.50;99.90;;;;;;5000210;28;20073;-80
2023/12/16 17:43:40;;;;;;;44.58;13.57;;;9.50;99.90;;;;;;5000411;28;20049;-79
2023/12/16 17:46:06;;;;;;;35.67;13.00;;;9.50;99.90;;;;;;4999517;28;20144;-79
2023/12/16 17:48:32;;;;;;;39.90;13.60;;;9.50;99.90;;;;;;4999825;28;20241;-78
2023/12/16 17:50:58;;;;;;;31.33;12.32;;;9.50;99.90;;;;;;4999331;28;20549;-78
2023/12/16 17:53:25;;;;;;;29.33;12.38;;;9.50;99.90;;;;;;4999503;28;20037;-78
2023/12/16 17:55:51;;;;;;;24.80;11.93;;;9.50;99.90;;;;;;5016979;28;20145;-79
2023/12/16 17:58:17;;;;;;;32.20;12.85;;;9.50;99.90;;;;;;5017159;28;20088;-78
2023/12/16 18:00:42;;;;;;;35.00;14.70;;;9.60;99.90;;;;;;4999585;28;20044;-79
2023/12/16 18:03:08;;;;;;;29.25;13.25;;;9.60;99.90;;;;;;5017317;28;20448;-80
2023/12/16 18:05:34;;;;;;;29.13;13.38;;;9.60;99.90;;;;;;4999622;28;20045;-78
2023/12/16 18:08:05;;;;;;;32.28;14.13;;;9.60;99.90;;;;;;5016882;28;20516;-78
2023/12/16 18:33:45;;;;;;;26.33;10.82;;;9.70;99.90;;;;;;5014971;28;20060;-81
2023/12/16 18:36:28;;;;;;;;;;;;;;;;;;;;;
2023/12/16 18:38:55;;;;;;;19.52;9.15;;;9.70;99.90;;;;;;4979258;28;20120;-80
2023/12/16 18:41:23;;;;;;;25.38;10.85;;;9.80;99.90;;;;;;4979246;28;20566;-81
2023/12/16 18:44:18;;;;;;;23.40;8.90;;;9.80;99.90;;;;;;4979334;28;20401;-80
2023/12/16 18:46:43;;;;;;;28.33;12.65;;;9.80;99.90;;;;;;4985279;28;20121;-81
2023/12/16 18:49:09;;;;;;;22.60;10.57;;;9.80;99.90;;;;;;4988613;28;20117;-79
2023/12/16 18:51:35;;;;;;;29.90;12.25;;;9.80;99.90;;;;;;4988150;28;20438;-80
2023/12/16 18:54:01;;;;;;;26.95;11.15;;;9.80;99.90;;;;;;4979583;28;20042;-80
2023/12/16 18:56:27;;;;;;;26.42;11.50;;;9.80;99.90;;;;;;4979360;28;20072;-79
2023/12/16 18:58:53;;;;;;;30.67;11.02;;;9.80;99.90;;;;;;4978949;28;20046;-79
2023/12/16 19:01:20;;;;;;;21.85;11.38;;;9.80;99.90;;;;;;4963917;28;20033;-80
2023/12/16 19:03:47;;;;;;;25.88;12.15;;;9.80;99.90;;;;;;5002601;28;20049;-80
2023/12/16 19:06:13;;;;;;;24.63;12.23;;;9.80;99.90;;;;;;4996963;28;20053;-81
2023/12/16 19:08:42;;;;;;;27.38;12.30;;;9.80;99.90;;;;;;4998352;28;20037;-81
2023/12/16 19:11:07;;;;;;;26.73;12.00;;;9.80;99.90;;;;;;4995188;28;20050;-80
2023/12/16 19:13:33;;;;;;;25.92;11.55;;;9.80;99.90;;;;;;4979009;28;20043;-80
2023/12/16 19:15:59;;;;;;;25.25;10.68;;;9.90;99.90;;;;;;4978531;28;20047;-80
2023/12/16 19:18:24;;;;;;;24.92;10.52;;;9.90;99.90;;;;;;4978345;28;20375;-80
2023/12/16 19:20:50;;;;;;;25.95;10.07;;;9.90;99.90;;;;;;4962161;28;20039;-81
2023/12/16 19:23:16;;;;;;;26.75;9.85;;;9.90;99.90;;;;;;4978113;28;20490;-80
2023/12/16 19:25:41;;;;;;;21.42;9.60;;;9.90;99.90;;;;;;4978379;28;20081;-80
2023/12/16 19:28:07;;;;;;;25.38;9.70;;;9.90;99.90;;;;;;4995293;28;20049;-81
2023/12/16 19:30:33;;;;;;;22.95;9.23;;;9.90;99.90;;;;;;4995864;28;20481;-80
2023/12/16 19:32:59;;;;;;;25.40;9.85;;;9.90;99.90;;;;;;4988800;28;20482;-81
2023/12/16 19:35:26;;;;;;;21.33;10.82;;;9.90;99.90;;;;;;4995904;28;20034;-82
2023/12/16 19:38:03;;;;;;;23.45;10.13;;;9.90;99.90;;;;;;4995515;28;20038;-82
2023/12/16 19:40:29;;;;;;;20.90;9.77;;;9.90;99.90;;;;;;4995523;28;20053;-81
2023/12/16 19:42:58;;;;;;;29.33;10.50;;;10.00;99.90;;;;;;4977053;28;20085;-80
2023/12/16 19:45:24;;;;;;;20.17;10.32;;;9.90;99.90;;;;;;4995039;28;20074;-80
2023/12/16 19:47:56;;;;;;;21.83;9.93;;;10.00;99.90;;;;;;4977750;28;20414;-80
2023/12/16 19:50:45;;;;;;;23.38;10.93;;;10.00;99.90;;;;;;4994772;28;20490;-79
2023/12/16 19:53:11;;;;;;;21.83;11.15;;;10.00;99.90;;;;;;4976665;28;20138;-80
2023/12/16 19:55:43;;;;;;;27.63;11.68;;;10.00;99.90;;;;;;4981680;28;20535;-80
2023/12/16 19:58:09;;;;;;;25.33;11.68;;;10.00;99.90;;;;;;4979872;28;20054;-84
2023/12/16 20:00:34;;;;;;;26.08;12.20;;;10.00;99.90;;;;;;4995296;28;20042;-79
2023/12/16 20:03:00;;;;;;;23.67;11.57;;;10.10;99.90;;;;;;4981034;28;20042;-78
2023/12/16 20:05:27;;;;;;;24.35;12.07;;;10.00;99.90;;;;;;5014373;28;20038;-77
2023/12/16 20:07:53;;;;;;;21.48;11.27;;;10.00;99.90;;;;;;4996671;28;20078;-77
2023/12/16 20:10:18;;;;;;;23.83;12.27;;;10.10;99.90;;;;;;5014506;28;20042;-78
2023/12/16 20:12:44;;;;;;;23.00;12.45;;;10.10;99.90;;;;;;5015053;28;20041;-77
2023/12/16 20:15:10;;;;;;;23.48;11.85;;;10.00;99.90;;;;;;5014506;28;20081;-79
2023/12/16 20:17:36;;;;;;;18.45;8.30;;;10.00;99.90;;;;;;5014650;28;20037;-77
2023/12/16 20:20:03;;;;;;;26.35;12.07;;;10.10;99.90;;;;;;5014762;28;20096;-79
2023/12/16 20:22:29;;;;;;;25.52;12.63;;;10.10;99.90;;;;;;4997102;28;20057;-78
2023/12/16 20:24:55;;;;;;;22.67;12.95;;;10.10;99.90;;;;;;5014732;28;20500;-78
2023/12/16 20:27:20;;;;;;;25.85;13.88;;;10.00;99.90;;;;;;5014688;28;20070;-77
2023/12/16 20:29:46;;;;;;;23.83;12.65;;;10.00;99.90;;;;;;4996638;28;20413;-77
2023/12/16 20:32:13;;;;;;;31.40;13.80;;;10.00;99.90;;;;;;5014255;28;20128;-78
2023/12/16 20:34:40;;;;;;;25.02;13.10;;;10.00;99.90;;;;;;4996939;28;20045;-78
2023/12/16 20:37:08;;;;;;;28.67;13.13;;;10.00;99.90;;;;;;5014021;28;20540;-78
2023/12/16 20:42:18;;;;;;;35.00;15.47;;;10.10;99.90;;;;;;5014004;28;20073;-78
2023/12/16 20:44:44;;;;;;;27.25;12.25;;;10.10;99.90;;;;;;5014240;28;20273;-78
2023/12/16 20:47:09;;;;;;;28.30;12.68;;;10.00;99.90;;;;;;4996365;28;20106;-78
2023/12/16 20:49:35;;;;;;;33.88;13.90;;;10.10;99.90;;;;;;5013831;28;20048;-77
2023/12/16 20:52:02;;;;;;;27.67;12.65;;;10.10;99.90;;;;;;4996412;28;20126;-78
2023/12/16 20:54:28;;;;;;;20.45;9.27;;;10.10;99.90;;;;;;4996333;28;20049;-78
2023/12/16 20:56:54;;;;;;;26.75;11.43;;;10.10;99.90;;;;;;4996066;28;20058;-77
2023/12/16 20:59:23;;;;;;;28.02;11.80;;;10.20;99.90;;;;;;5013967;28;20447;-79
2023/12/16 21:01:48;;;;;;;27.15;12.75;;;10.10;99.90;;;;;;4980416;28;20132;-77
2023/12/16 21:04:14;;;;;;;22.88;10.50;;;10.10;99.90;;;;;;5014070;28;20451;-78
2023/12/16 21:06:39;;;;;;;21.17;10.98;;;10.10;99.90;;;;;;4996054;28;20091;-78
2023/12/16 21:09:05;;;;;;;22.42;10.63;;;10.10;99.90;;;;;;4996063;28;20049;-77
2023/12/16 21:11:31;;;;;;;22.55;8.88;;;10.20;99.90;;;;;;5013863;28;20081;-78
2023/12/16 21:13:56;;;;;;;24.33;9.75;;;10.10;99.90;;;;;;5013531;28;20045;-78
2023/12/16 21:16:22;;;;;;;21.77;7.57;;;10.20;99.90;;;;;;4995904;28;20038;-78
2023/12/16 21:18:49;;;;;;;22.67;9.45;;;10.20;99.90;;;;;;5013774;28;20042;-78
2023/12/16 21:21:14;;;;;;;18.50;7.95;;;10.20;99.90;;;;;;5013687;28;20397;-79
2023/12/16 21:23:40;;;;;;;22.88;8.93;;;10.20;99.90;;;;;;4995951;28;20042;-78
2023/12/16 21:26:06;;;;;;;20.92;8.80;;;10.20;99.90;;;;;;4995810;28;20108;-79
2023/12/16 21:28:35;;;;;;;23.80;9.43;;;10.10;99.90;;;;;;5013782;28;20044;-78
2023/12/16 21:31:00;;;;;;;21.00;9.18;;;10.10;99.90;;;;;;5013218;28;20049;-78
2023/12/16 21:33:26;;;;;;;14.52;8.80;;;10.20;99.90;;;;;;5014600;28;20041;-77
2023/12/16 21:35:52;;;;;;;23.13;7.65;;;10.20;99.90;;;;;;5013604;28;20033;-77
2023/12/16 21:38:17;;;;;;;20.15;8.63;;;10.10;99.90;;;;;;5013586;28;20074;-77
2023/12/16 21:40:44;;;;;;;19.88;8.65;;;10.20;99.90;;;;;;4979967;28;20042;-77
2023/12/16 21:43:13;;;;;;;26.85;9.00;;;10.20;99.90;;;;;;4980060;28;20042;-77
2023/12/16 21:45:42;;;;;;;19.67;8.20;;;10.10;99.90;;;;;;4979741;28;20429;-77
2023/12/16 21:48:12;;;;;;;17.40;8.18;;;10.20;99.90;;;;;;5012974;28;20493;-78
2023/12/16 21:50:39;;;;;;;17.58;8.02;;;10.10;99.90;;;;;;4979196;28;20452;-77
2023/12/16 21:53:08;;;;;;;14.07;8.00;;;10.20;99.90;;;;;;4979087;28;20032;-77
2023/12/16 21:56:05;;;;;;;;;;;;;;;;;;;;;
2023/12/16 21:58:40;;;;;;;19.77;7.75;;;10.10;99.90;;;;;;4995625;28;20045;-81
2023/12/16 22:01:05;;;;;;;18.13;7.37;;;10.10;99.90;;;;;;4996691;28;20072;-80
2023/12/16 22:03:33;;;;;;;16.20;7.32;;;10.10;99.90;;;;;;5013521;28;20756;-79
2023/12/16 22:05:58;;;;;;;18.85;7.70;;;10.10;99.90;;;;;;4996072;28;20121;-79
2023/12/16 22:08:24;;;;;;;13.70;6.07;;;10.10;99.90;;;;;;5016774;28;20084;-80
2023/12/16 22:10:50;;;;;;;21.85;7.25;;;10.20;99.90;;;;;;4983257;28;20073;-80
2023/12/16 22:13:16;;;;;;;16.15;7.72;;;10.20;99.90;;;;;;4999824;28;20042;-81
2023/12/16 22:16:03;;;;;;;19.98;7.20;;;10.20;99.90;;;;;;5017522;28;20056;-80
2023/12/16 22:18:29;;;;;;;16.98;6.88;;;10.10;99.90;;;;;;4983595;28;20132;-81
2023/12/16 22:20:56;;;;;;;15.77;6.20;;;10.10;99.90;;;;;;5017319;28;20065;-81
2023/12/16 22:23:22;;;;;;;19.65;6.90;;;10.20;99.90;;;;;;5016726;28;20038;-79
2023/12/16 22:25:48;;;;;;;19.00;7.63;;;10.20;99.90;;;;;;4999081;28;20068;-80
2023/12/16 22:28:14;;;;;;;17.23;6.93;;;10.20;99.90;;;;;;5016607;28;20148;-80
2023/12/16 22:30:39;;;;;;;20.60;6.63;;;10.20;99.90;;;;;;5016632;28;20042;-81
2023/12/16 22:33:05;;;;;;;16.65;6.32;;;10.20;99.90;;;;;;4998753;28;20034;-81
2023/12/16 22:35:31;;;;;;;13.98;6.97;;;10.20;99.90;;;;;;5016856;28;20029;-80
2023/12/16 22:37:56;;;;;;;11.82;5.65;;;10.20;99.90;;;;;;5017082;28;20037;-81
2023/12/16 22:40:37;;;;;;;14.23;6.30;;;10.20;99.90;;;;;;4998866;28;20060;-80
2023/12/16 22:43:37;;;;;;;;;;;;;;;;;;;;;
2023/12/16 22:46:03;;;;;;;15.52;6.72;;;10.20;99.90;;;;;;4998230;28;20498;-81
2023/12/16 22:48:28;;;;;;;12.85;5.47;;;10.30;99.90;;;;;;4982339;28;20056;-79
2023/12/16 22:50:56;;;;;;;15.05;6.32;;;10.30;99.90;;;;;;5016913;28;20042;-81
2023/12/16 22:53:22;;;;;;;14.35;6.35;;;10.20;99.90;;;;;;5017104;28;20072;-80
2023/12/16 22:55:48;;;;;;;17.83;5.97;;;10.20;99.90;;;;;;5016098;28;20037;-80
2023/12/16 22:58:14;;;;;;;15.45;6.13;;;10.20;99.90;;;;;;5016419;28;20065;-81
2023/12/16 23:00:40;;;;;;;15.82;6.43;;;10.20;99.90;;;;;;4998584;28;20460;-81
2023/12/16 23:03:05;;;;;;;12.90;6.70;;;10.20;99.90;;;;;;5015766;28;20482;-81
2023/12/16 23:05:31;;;;;;;17.17;6.47;;;10.30;99.90;;;;;;4998646;28;20041;-80
2023/12/16 23:08:13;;;;;;;13.95;6.40;;;10.30;99.90;;;;;;5016504;28;20041;-81
2023/12/16 23:10:39;;;;;;;13.73;5.97;;;10.20;99.90;;;;;;5015234;28;20045;-79
2023/12/16 23:13:07;;;;;;;14.80;6.43;;;10.20;99.90;;;;;;5015861;28;20122;-80
2023/12/16 23:15:34;;;;;;;13.77;6.22;;;10.20;99.90;;;;;;4981958;28;20385;-80
2023/12/16 23:18:00;;;;;;;14.77;5.18;;;10.20;99.90;;;;;;4997491;28;20034;-79
2023/12/16 23:20:26;;;;;;;14.02;6.18;;;10.20;99.90;;;;;;4998044;28;20045;-81
2023/12/16 23:22:52;;;;;;;17.05;5.80;;;10.20;99.90;;;;;;4981846;28;20049;-80
2023/12/16 23:25:18;;;;;;;17.80;6.50;;;10.20;99.90;;;;;;5015587;28;20153;-81
2023/12/16 23:27:43;;;;;;;19.67;6.15;;;10.20;99.90;;;;;;5015592;28;20488;-81
2023/12/16 23:30:10;;;;;;;19.38;6.60;;;10.20;99.90;;;;;;4997722;28;20038;-80
2023/12/16 23:32:35;;;;;;;14.85;5.88;;;10.10;99.90;;;;;;4997550;28;20081;-81